Weather History for KCIU - May, 2013

Change the Weather History Date:

Wednesday, May 8, 2013

  Actual Average (KANJ) Record (KANJ)
Temperature  
Mean Temperature 63 °F 50 °F  
Max Temperature 78 °F 60 °F 88 °F (1896)
Min Temperature 48 °F 39 °F 22 °F (1974)
Degree Days  
Heating Degree Days 2 15  
Month to date heating degree days 133  
Since 1 July heating degree days 8202  
Cooling Degree Days 0 0  
Month to date cooling degree days 0  
Year to date cooling degree days 0  
Growing Degree Days 13 (Base 50)    
Moisture  
Dew Point 33 °F    
Average Humidity 32    
Maximum Humidity 50    
Minimum Humidity 20    
Precipitation  
Precipitation 0.00 in 0.07 in 2.11 in (1957)
Month to date precipitation 0.61  
Year to date precipitation 8.48  
Sea Level Pressure  
Sea Level Pressure 30.02 in    
Wind  
Wind Speed 4 mph (SSE)    
Max Wind Speed 9 mph    
Max Gust Speed -    
Visibility 10 miles    
Events      
T = Trace of Precipitation, MM = Missing Value Source: NWS Daily Summary

Daily Weather History Graph

Daily Weather History Graph

Search for Another Location

Airport or City:

Trip Planner

Search our weather history database for the weather conditions in past years. The results will help you decide how hot, cold, wet, or windy it might be!

Date:

Astronomy

May. 08, 2013 Rise Set
Actual Time 6:13 AM EDT 8:55 PM EDT
Civil Twilight 5:39 AM EDT 9:30 PM EDT
Nautical Twilight 4:55 AM EDT 10:14 PM EDT
Astronomical Twilight 4:05 AM EDT 11:05 PM EDT
Moon 5:25 AM EDT (5/8) 7:50 PM EDT (5/8)
Length of Visible Light 15h 51m
Length of Day
14h 42m
Waning Crescent, 2% of the Moon is Illuminated
May 8
Waning Crescent
May 9
New
May 18
First Quarter
May 25
Full
May 31
Last Quarter

Hourly Weather History & Observations

Time (EDT) Temp. Dew Point Humidity Pressure Visibility Wind Dir Wind Speed Gust Speed Precip Events Conditions
12:15 AM 55.4 °F 26.6 °F 33% 30.06 in 10.0 mi ESE 3.5 mph - N/A   Clear
12:35 AM 53.6 °F 26.6 °F 35% 30.05 in 10.0 mi East 3.5 mph - N/A   Clear
12:55 AM 53.6 °F 26.6 °F 35% 30.05 in 10.0 mi ESE 4.6 mph - N/A   Clear
1:15 AM 53.6 °F 26.6 °F 35% 30.05 in 10.0 mi ESE 4.6 mph - N/A   Clear
1:35 AM 53.6 °F 24.8 °F 33% 30.05 in 10.0 mi ESE 5.8 mph - N/A   Clear
1:55 AM 53.6 °F 24.8 °F 33% 30.04 in 10.0 mi ESE 3.5 mph - N/A   Clear
2:15 AM 53.6 °F 24.8 °F 33% 30.04 in 10.0 mi Calm Calm - N/A   Clear
2:35 AM 53.6 °F 24.8 °F 33% 30.04 in 10.0 mi Calm Calm - N/A   Clear
2:55 AM 51.8 °F 28.4 °F 41% 30.04 in 10.0 mi Calm Calm - N/A   Clear
3:15 AM 48.2 °F 30.2 °F 50% 30.03 in 10.0 mi SE 3.5 mph - N/A   Clear
3:35 AM 48.2 °F 30.2 °F 50% 30.03 in 10.0 mi SE 6.9 mph - N/A   Clear
3:55 AM 51.8 °F 28.4 °F 41% 30.03 in 10.0 mi SE 8.1 mph - N/A   Clear
4:15 AM 51.8 °F 26.6 °F 38% 30.03 in 10.0 mi SE 6.9 mph - N/A   Clear
4:35 AM 51.8 °F 26.6 °F 38% 30.03 in 10.0 mi SE 8.1 mph - N/A   Clear
4:55 AM 51.8 °F 26.6 °F 38% 30.03 in 10.0 mi SE 5.8 mph - N/A   Clear
5:15 AM 51.8 °F 26.6 °F 38% 30.03 in 10.0 mi SE 5.8 mph - N/A   Clear
5:35 AM 50.0 °F 26.6 °F 40% 30.02 in 10.0 mi SE 3.5 mph - N/A   Clear
5:55 AM 50.0 °F 26.6 °F 40% 30.03 in 10.0 mi Calm Calm - N/A   Clear
6:15 AM 50.0 °F 26.6 °F 40% 30.03 in 10.0 mi Calm Calm - N/A   Clear
6:35 AM 50.0 °F 26.6 °F 40% 30.03 in 10.0 mi Calm Calm - N/A   Clear
6:55 AM 51.8 °F 26.6 °F 38% 30.04 in 10.0 mi Calm Calm - N/A   Clear
7:15 AM 51.8 °F 32.0 °F 47% 30.04 in 10.0 mi East 4.6 mph - N/A   Clear
7:35 AM 53.6 °F 33.8 °F 47% 30.05 in 10.0 mi ESE 3.5 mph - N/A   Clear
7:55 AM 55.4 °F 33.8 °F 44% 30.05 in 10.0 mi ESE 5.8 mph - N/A   Clear
8:15 AM 57.2 °F 35.6 °F 44% 30.05 in 10.0 mi ESE 3.5 mph - N/A   Clear
8:35 AM 59.0 °F 33.8 °F 39% 30.06 in 10.0 mi SE 4.6 mph - N/A   Clear
8:55 AM 60.8 °F 33.8 °F 36% 30.06 in 10.0 mi SE 8.1 mph - N/A   Clear
9:15 AM 62.6 °F 33.8 °F 34% 30.06 in 10.0 mi SE 8.1 mph - N/A   Clear
9:35 AM 64.4 °F 33.8 °F 32% 30.06 in 10.0 mi SSE 6.9 mph - N/A   Clear
9:55 AM 66.2 °F 33.8 °F 30% 30.05 in 10.0 mi South 8.1 mph - N/A   Clear
10:15 AM 68.0 °F 35.6 °F 30% 30.05 in 10.0 mi SE 6.9 mph - N/A   Clear
10:35 AM 69.8 °F 35.6 °F 28% 30.04 in 10.0 mi SE 3.5 mph - N/A   Clear
10:55 AM 69.8 °F 35.6 °F 28% 30.04 in 10.0 mi ESE 3.5 mph - N/A   Clear
11:15 AM 71.6 °F 37.4 °F 29% 30.04 in 10.0 mi South 5.8 mph - N/A   Clear
11:35 AM 71.6 °F 37.4 °F 29% 30.04 in 10.0 mi SSE 5.8 mph - N/A   Clear
11:55 AM 73.4 °F 37.4 °F 27% 30.04 in 10.0 mi SE 6.9 mph - N/A   Clear
12:15 PM 73.4 °F 37.4 °F 27% 30.03 in 10.0 mi South 6.9 mph - N/A   Clear
12:35 PM 73.4 °F 37.4 °F 27% 30.03 in 10.0 mi SE 6.9 mph - N/A   Clear
12:55 PM 75.2 °F 37.4 °F 25% 30.03 in 10.0 mi SSE 5.8 mph - N/A   Clear
1:15 PM 75.2 °F 35.6 °F 24% 30.02 in 10.0 mi WSW 6.9 mph - N/A   Clear
1:35 PM 75.2 °F 35.6 °F 24% 30.02 in 10.0 mi NNW 3.5 mph - N/A   Clear
1:55 PM 77.0 °F 35.6 °F 22% 30.01 in 10.0 mi WSW 3.5 mph - N/A   Clear
2:15 PM 75.2 °F 33.8 °F 22% 30.00 in 10.0 mi Calm Calm - N/A   Clear
2:35 PM 77.0 °F 33.8 °F 21% 30.00 in 10.0 mi Calm Calm - N/A   Clear
2:55 PM 78.8 °F 33.8 °F 20% 30.00 in 10.0 mi Calm Calm - N/A   Scattered Clouds
3:15 PM 78.8 °F 33.8 °F 20% 29.99 in 10.0 mi NNW 5.8 mph - N/A   Mostly Cloudy
3:35 PM 77.0 °F 33.8 °F 21% 29.99 in 10.0 mi North 3.5 mph - N/A   Scattered Clouds
3:55 PM 77.0 °F 35.6 °F 22% 29.99 in 10.0 mi Calm Calm - N/A   Clear
4:35 PM 78.8 °F 35.6 °F 21% 29.98 in 10.0 mi SSE 9.2 mph - N/A   Partly Cloudy
4:55 PM 78.8 °F 35.6 °F 21% 29.98 in 10.0 mi South 3.5 mph - N/A   Partly Cloudy
5:15 PM 78.8 °F 35.6 °F 21% 29.97 in 10.0 mi SSE 6.9 mph - N/A   Scattered Clouds
5:35 PM 78.8 °F 33.8 °F 20% 29.97 in 10.0 mi South 8.1 mph - N/A   Scattered Clouds
5:55 PM 77.0 °F 33.8 °F 21% 29.97 in 10.0 mi SSW 8.1 mph - N/A   Clear
6:15 PM 77.0 °F 33.8 °F 21% 29.97 in 10.0 mi SSW 9.2 mph - N/A   Clear
6:35 PM 77.0 °F 33.8 °F 21% 29.97 in 10.0 mi SW 6.9 mph - N/A   Clear
6:55 PM 75.2 °F 33.8 °F 22% 29.97 in 10.0 mi SSW 5.8 mph - N/A   Clear
7:15 PM 75.2 °F 33.8 °F 22% 29.97 in 10.0 mi SSW 5.8 mph - N/A   Clear
7:35 PM 73.4 °F 33.8 °F 23% 29.98 in 10.0 mi SSW 5.8 mph - N/A   Clear
7:55 PM 73.4 °F 33.8 °F 23% 29.97 in 10.0 mi SW 3.5 mph - N/A   Clear
8:15 PM 71.6 °F 35.6 °F 27% 29.98 in 10.0 mi WSW 3.5 mph - N/A   Clear
8:35 PM 69.8 °F 35.6 °F 28% 29.98 in 10.0 mi SW 3.5 mph - N/A   Clear
8:55 PM 69.8 °F 37.4 °F 31% 29.97 in 10.0 mi Calm Calm - N/A   Clear
9:15 PM 66.2 °F 37.4 °F 35% 29.98 in 10.0 mi SW 4.6 mph - N/A   Clear
9:35 PM 66.2 °F 37.4 °F 35% 29.98 in 10.0 mi SW 4.6 mph - N/A   Clear
9:55 PM 64.4 °F 37.4 °F 37% 29.98 in 10.0 mi SW 3.5 mph - N/A   Clear
10:15 PM 64.4 °F 37.4 °F 37% 29.98 in 10.0 mi SW 3.5 mph - N/A   Clear
10:35 PM 62.6 °F 39.2 °F 42% 29.99 in 10.0 mi SW 3.5 mph - N/A   Clear
10:55 PM 59.0 °F 39.2 °F 48% 29.98 in 10.0 mi Calm Calm - N/A   Clear
11:15 PM 59.0 °F 39.2 °F 48% 29.98 in 10.0 mi Calm Calm - N/A   Clear
11:35 PM 60.8 °F 39.2 °F 45% 29.98 in 10.0 mi West 4.6 mph - N/A   Clear
11:55 PM 60.8 °F 39.2 °F 45% 29.98 in 10.0 mi West 4.6 mph - N/A   Clear